createdAt,value
2023-04-18T00:01:29.110Z,100631.69
2023-04-18T00:03:55.812Z,100623.16
2023-04-18T00:06:22.528Z,100628.16
2023-04-18T00:08:49.102Z,100626.44
2023-04-18T00:11:15.683Z,100620.53
2023-04-18T00:13:44.345Z,100629.44
2023-04-18T00:16:11.171Z,100627.69
2023-04-18T00:18:37.772Z,100611.25
2023-04-18T00:21:04.651Z,100623.91
2023-04-18T00:23:31.351Z,100622.69
2023-04-18T00:25:57.953Z,100613.00
2023-04-18T00:28:24.618Z,100619.88
2023-04-18T00:30:52.699Z,100618.28
2023-04-18T00:33:19.560Z,100617.53
2023-04-18T00:35:46.103Z,100615.66
2023-04-18T00:38:12.679Z,100615.53
2023-04-18T00:40:40.361Z,100623.84
2023-04-18T00:43:07.509Z,100614.56
2023-04-18T00:45:34.227Z,100621.97
2023-04-18T00:48:02.379Z,100619.81
2023-04-18T00:50:29.539Z,100618.94
2023-04-18T00:52:56.639Z,100620.69
2023-04-18T00:55:24.619Z,100615.34
2023-04-18T00:57:51.758Z,100611.41
2023-04-18T01:00:18.621Z,100609.63
2023-04-18T01:02:45.278Z,100617.56
2023-04-18T01:05:13.485Z,100612.81
2023-04-18T01:07:40.287Z,100603.50
2023-04-18T01:10:08.133Z,100606.03
2023-04-18T01:12:34.706Z,100611.00
2023-04-18T01:15:01.244Z,100603.00
2023-04-18T01:17:27.965Z,100606.09
2023-04-18T01:19:54.561Z,100604.44
2023-04-18T01:22:22.514Z,100598.97
2023-04-18T01:24:50.580Z,100594.56
2023-04-18T01:27:17.146Z,100598.19
2023-04-18T01:29:43.702Z,100590.63
2023-04-18T01:32:10.341Z,100597.03
2023-04-18T01:34:36.913Z,100581.75
2023-04-18T01:37:03.557Z,100594.56
2023-04-18T01:39:30.126Z,100587.22
2023-04-18T01:41:58.272Z,100587.84
2023-04-18T01:44:24.908Z,100592.78
2023-04-18T01:46:51.763Z,100580.19
2023-04-18T01:49:18.472Z,100581.72
2023-04-18T01:51:44.997Z,100590.19
2023-04-18T01:54:12.006Z,100587.31
2023-04-18T01:56:38.731Z,100575.78
2023-04-18T01:59:06.685Z,100580.13
2023-04-18T02:01:33.516Z,100575.41
2023-04-18T02:04:00.184Z,100570.25
2023-04-18T02:06:27.008Z,100563.06
2023-04-18T02:08:53.604Z,100565.47
2023-04-18T02:11:20.153Z,100578.97
2023-04-18T02:13:46.885Z,100576.84
2023-04-18T02:16:14.905Z,100575.38
2023-04-18T02:18:43.072Z,100575.13
2023-04-18T02:21:09.615Z,100570.41
2023-04-18T02:23:36.383Z,100572.59
2023-04-18T02:26:02.953Z,100572.88
2023-04-18T02:28:29.538Z,100575.16
2023-04-18T02:30:56.711Z,100565.06
2023-04-18T02:33:24.706Z,100559.34
2023-04-18T02:35:51.302Z,100575.66
2023-04-18T02:38:17.872Z,100560.50
2023-04-18T02:40:45.652Z,100569.78
2023-04-18T02:43:12.235Z,100577.13
2023-04-18T02:45:38.976Z,100574.50
2023-04-18T02:48:05.607Z,100578.34
2023-04-18T02:50:33.512Z,100570.97
2023-04-18T02:53:00.515Z,100563.38
2023-04-18T02:55:27.159Z,100576.31
2023-04-18T02:57:53.609Z,100569.56
2023-04-18T03:00:20.302Z,100570.34
2023-04-18T03:02:47.104Z,100571.25
2023-04-18T03:05:13.742Z,100574.53
2023-04-18T03:07:41.888Z,100574.75
2023-04-18T03:10:09.278Z,100576.13
2023-04-18T03:12:35.978Z,100576.50
2023-04-18T03:15:02.969Z,100571.38
2023-04-18T03:17:29.738Z,100578.25
2023-04-18T03:19:56.327Z,100582.53
2023-04-18T03:22:22.903Z,100575.91
2023-04-18T03:24:50.986Z,100576.19
2023-04-18T03:27:17.756Z,100570.81
2023-04-18T03:29:44.318Z,100583.31
2023-04-18T03:32:10.901Z,100572.63
2023-04-18T03:34:37.498Z,100588.41
2023-04-18T03:37:04.057Z,100577.56
2023-04-18T03:39:30.640Z,100577.13
2023-04-18T03:41:58.528Z,100578.38
2023-04-18T03:44:25.196Z,100575.63
2023-04-18T03:46:52.236Z,100579.09
2023-04-18T03:49:18.818Z,100575.03
2023-04-18T03:51:47.048Z,100587.34
2023-04-18T03:54:13.953Z,100573.03
2023-04-18T03:56:40.902Z,100583.88
2023-04-18T03:59:10.775Z,100581.50
2023-04-18T04:01:37.737Z,100587.75
2023-04-18T04:04:04.861Z,100591.78
2023-04-18T04:06:31.558Z,100583.34
2023-04-18T04:08:58.457Z,100582.38
2023-04-18T04:11:25.009Z,100584.22
2023-04-18T04:13:51.574Z,100577.06
2023-04-18T04:16:19.734Z,100583.91
2023-04-18T04:18:46.385Z,100585.84
2023-04-18T04:21:13.005Z,100576.84
2023-04-18T04:23:39.619Z,100584.97
2023-04-18T04:26:06.149Z,100573.03
2023-04-18T04:28:32.604Z,100585.41
2023-04-18T04:30:59.138Z,100587.31
2023-04-18T04:33:29.550Z,100584.50
2023-04-18T04:35:57.741Z,100599.56
2023-04-18T04:38:24.290Z,100616.06
2023-04-18T04:40:51.249Z,100593.63
2023-04-18T04:43:17.806Z,100594.03
2023-04-18T04:45:44.508Z,100600.84
2023-04-18T04:48:11.243Z,100602.34
2023-04-18T04:50:41.540Z,100613.25
2023-04-18T04:53:08.448Z,100596.72
2023-04-18T04:55:35.075Z,100597.97
2023-04-18T04:58:01.988Z,100614.72
2023-04-18T05:00:28.627Z,100601.44
2023-04-18T05:02:56.561Z,100602.72
2023-04-18T05:05:23.634Z,100622.34
2023-04-18T05:07:53.972Z,100617.13
2023-04-18T05:10:20.933Z,100619.00
2023-04-18T05:12:47.995Z,100624.69
2023-04-18T05:15:15.938Z,100623.03
2023-04-18T05:17:42.784Z,100614.91
2023-04-18T05:20:09.695Z,100636.91
2023-04-18T05:22:36.301Z,100625.19
2023-04-18T05:25:05.188Z,100645.53
2023-04-18T05:27:31.714Z,100633.91
2023-04-18T05:29:58.409Z,100639.75
2023-04-18T05:32:25.027Z,100630.53
2023-04-18T05:34:52.012Z,100633.44
2023-04-18T05:37:18.657Z,100631.97
2023-04-18T05:39:45.275Z,100646.88
2023-04-18T05:42:13.232Z,100643.75
2023-04-18T05:44:39.771Z,100644.59
2023-04-18T05:47:06.607Z,100657.47
2023-04-18T05:49:33.336Z,100653.34
2023-04-18T05:51:59.948Z,100649.97
2023-04-18T05:54:26.560Z,100654.13
2023-04-18T05:56:53.896Z,100648.03
2023-04-18T05:59:21.886Z,100653.56
2023-04-18T06:01:48.575Z,100659.41
2023-04-18T06:04:15.602Z,100648.94
2023-04-18T06:06:42.620Z,100654.38
2023-04-18T06:09:09.273Z,100659.19
2023-04-18T06:11:35.817Z,100659.06
2023-04-18T06:14:02.808Z,100666.28
2023-04-18T06:16:30.859Z,100663.91
2023-04-18T06:18:59.513Z,100667.25
2023-04-18T06:21:27.654Z,100663.63
2023-04-18T06:23:54.292Z,100655.13
2023-04-18T06:26:22.140Z,100664.88
2023-04-18T06:28:48.704Z,100659.81
2023-04-18T06:31:15.379Z,100667.72
2023-04-18T06:33:43.422Z,100681.44
2023-04-18T06:36:10.195Z,100675.13
2023-04-18T06:38:36.810Z,100676.53
2023-04-18T06:41:03.704Z,100680.34
2023-04-18T06:43:30.359Z,100696.13
2023-04-18T06:45:57.117Z,100684.59
2023-04-18T06:48:23.796Z,100684.19
2023-04-18T06:50:51.738Z,100685.47
2023-04-18T06:53:18.388Z,100702.97
2023-04-18T06:55:44.959Z,100714.34
2023-04-18T06:58:11.647Z,100717.06
2023-04-18T07:00:38.237Z,100704.41
2023-04-18T07:03:04.985Z,100715.28
2023-04-18T07:05:31.742Z,100714.84
2023-04-18T07:07:59.690Z,100717.38
2023-04-18T07:10:26.243Z,100706.84
2023-04-18T07:12:52.863Z,100718.28
2023-04-18T07:15:19.513Z,100713.16
2023-04-18T07:17:48.728Z,100724.16
2023-04-18T07:20:15.427Z,100718.16
2023-04-18T07:22:42.427Z,100717.94
2023-04-18T07:25:10.519Z,100712.06
2023-04-18T07:27:37.486Z,100726.38
2023-04-18T07:30:04.700Z,100719.19
2023-04-18T07:32:31.401Z,100726.31
2023-04-18T07:34:58.078Z,100723.69
2023-04-18T07:37:24.823Z,100713.81
2023-04-18T07:39:51.733Z,100724.41
2023-04-18T07:42:19.747Z,100722.91
2023-04-18T07:44:46.262Z,100726.84
2023-04-18T07:47:12.965Z,100740.66
2023-04-18T07:49:39.551Z,100732.56
2023-04-18T07:52:06.143Z,100732.19
2023-04-18T07:54:32.955Z,100739.84
2023-04-18T07:56:59.820Z,100739.06
2023-04-18T07:59:28.999Z,100740.53
2023-04-18T08:01:55.759Z,100748.16
2023-04-18T08:04:22.527Z,100740.88
2023-04-18T08:06:49.579Z,100747.19
2023-04-18T08:09:16.319Z,100736.22
2023-04-18T08:11:43.078Z,100740.16
2023-04-18T08:14:09.694Z,100743.88
2023-04-18T08:16:39.445Z,100737.19
2023-04-18T08:19:06.115Z,100744.28
2023-04-18T08:21:33.242Z,100757.81
2023-04-18T08:23:59.801Z,100759.31
2023-04-18T08:26:26.432Z,100744.41
2023-04-18T08:28:53.194Z,100738.25
2023-04-18T08:31:19.939Z,100739.28
2023-04-18T08:33:47.939Z,100735.91
2023-04-18T08:36:14.627Z,100752.38
2023-04-18T08:38:41.217Z,100747.69
2023-04-18T08:41:08.536Z,100751.50
2023-04-18T08:43:37.380Z,100751.34
2023-04-18T08:46:04.195Z,100747.94
2023-04-18T08:48:30.908Z,100742.53
2023-04-18T08:51:00.216Z,100743.13
2023-04-18T08:53:27.309Z,100740.97
2023-04-18T08:55:55.176Z,100756.25
2023-04-18T08:58:22.227Z,100749.44
2023-04-18T09:00:50.609Z,100748.81
2023-04-18T09:03:17.406Z,100750.09
2023-04-18T09:06:04.514Z,100741.88
2023-04-18T09:08:32.501Z,100755.63
2023-04-18T09:11:22.670Z,100742.25
2023-04-18T09:13:49.259Z,100751.28
2023-04-18T09:16:17.055Z,100753.53
2023-04-18T09:19:08.064Z,100744.56
2023-04-18T09:21:34.726Z,100758.34
2023-04-18T09:24:16.640Z,100755.84
2023-04-18T09:26:43.418Z,100756.19
2023-04-18T09:29:10.062Z,100746.25
2023-04-18T09:31:57.759Z,100757.34
2023-04-18T09:34:24.339Z,100743.91
2023-04-18T09:37:06.265Z,100760.44
2023-04-18T09:39:34.320Z,100746.56
2023-04-18T09:42:01.237Z,100746.72
2023-04-18T09:44:28.186Z,100770.41
2023-04-18T09:46:54.954Z,100755.59
2023-04-18T09:49:22.447Z,100747.97
2023-04-18T09:51:51.185Z,100749.22
2023-04-18T09:54:18.292Z,100742.41
2023-04-18T09:56:48.122Z,100740.25
2023-04-18T09:59:21.216Z,100730.38
2023-04-18T10:01:49.583Z,100726.59
2023-04-18T10:04:17.554Z,100739.81
2023-04-18T10:06:46.020Z,100721.97
2023-04-18T10:09:14.469Z,100721.06
2023-04-18T10:11:41.701Z,100732.38
2023-04-18T10:14:12.966Z,100756.91
2023-04-18T10:16:43.515Z,100750.31
2023-04-18T10:19:20.171Z,100728.84
2023-04-18T10:21:51.986Z,100727.22
2023-04-18T10:24:46.078Z,100734.69
2023-04-18T10:27:12.653Z,100730.59
2023-04-18T10:29:51.493Z,100724.47
2023-04-18T10:32:19.312Z,100740.59
2023-04-18T10:34:46.659Z,100733.44
2023-04-18T10:37:13.389Z,100715.97
2023-04-18T10:39:51.003Z,100715.09
2023-04-18T10:42:17.612Z,100711.50
2023-04-18T10:45:04.362Z,100720.81
2023-04-18T10:47:32.491Z,100715.00
2023-04-18T10:50:01.536Z,100712.50
2023-04-18T10:52:28.453Z,100701.94
2023-04-18T10:55:09.263Z,100702.88
2023-04-18T10:57:40.333Z,100717.50
2023-04-18T11:00:08.758Z,100707.00
2023-04-18T11:02:37.129Z,100713.44
2023-04-18T11:05:04.817Z,100700.34
2023-04-18T11:07:35.684Z,100691.69
2023-04-18T11:10:02.882Z,100697.00
2023-04-18T11:12:30.528Z,100696.84
2023-04-18T11:14:57.247Z,100710.66
2023-04-18T11:17:25.726Z,100698.63
2023-04-18T11:20:02.347Z,100722.50
2023-04-18T11:22:29.124Z,100683.69
2023-04-18T11:24:58.563Z,100689.78
2023-04-18T11:27:25.943Z,100678.63
2023-04-18T11:29:53.734Z,100685.97
2023-04-18T11:32:22.604Z,100685.09
2023-04-18T11:34:51.982Z,100677.84
2023-04-18T11:37:20.506Z,100675.38
2023-04-18T11:39:47.660Z,100678.91
2023-04-18T11:42:14.488Z,100674.78
2023-04-18T11:44:45.691Z,100674.75
2023-04-18T11:47:25.829Z,100671.41
2023-04-18T11:49:57.383Z,100678.22
2023-04-18T11:52:27.037Z,100677.84
2023-04-18T11:54:54.009Z,100676.56
2023-04-18T11:57:22.956Z,100691.69
2023-04-18T11:59:50.852Z,100671.91
2023-04-18T12:02:17.945Z,100683.59
2023-04-18T12:04:55.269Z,100682.03
2023-04-18T12:07:37.719Z,100691.81
2023-04-18T12:10:06.818Z,100682.16
2023-04-18T12:12:33.885Z,100687.31
2023-04-18T12:15:02.602Z,100678.63
2023-04-18T12:17:30.401Z,100689.69
2023-04-18T12:20:01.172Z,100684.56
2023-04-18T12:22:39.491Z,100681.22
2023-04-18T12:25:17.115Z,100688.88
2023-04-18T12:27:50.684Z,100670.28
2023-04-18T12:30:17.925Z,100700.88
2023-04-18T12:32:44.522Z,100673.81
2023-04-18T12:35:11.204Z,100661.66
2023-04-18T12:37:39.414Z,100667.22
2023-04-18T12:40:07.667Z,100674.94
2023-04-18T12:42:34.317Z,100661.84
2023-04-18T12:45:00.985Z,100680.28
2023-04-18T12:47:27.691Z,100670.66
2023-04-18T12:49:55.047Z,100676.47
2023-04-18T12:52:21.627Z,100660.44
2023-04-18T12:54:49.660Z,100661.66
2023-04-18T12:57:16.950Z,100655.53
2023-04-18T12:59:43.542Z,100656.84
2023-04-18T13:02:10.285Z,100653.03
2023-04-18T13:04:37.105Z,100669.63
2023-04-18T13:07:03.788Z,100650.84
2023-04-18T13:09:30.469Z,100657.19
2023-04-18T13:11:58.444Z,100662.00
2023-04-18T13:14:25.137Z,100653.41
2023-04-18T13:16:51.884Z,100667.88
2023-04-18T13:19:18.611Z,100652.47
2023-04-18T13:21:45.155Z,100660.00
2023-04-18T13:24:11.824Z,100655.22
2023-04-18T13:26:38.424Z,100649.03
2023-04-18T13:29:06.429Z,100642.06
2023-04-18T13:31:33.023Z,100650.28
2023-04-18T13:33:59.621Z,100648.75
2023-04-18T13:36:27.676Z,100648.97
2023-04-18T13:38:55.090Z,100649.47
2023-04-18T13:41:21.671Z,100668.59
2023-04-18T13:43:48.370Z,100659.94
2023-04-18T13:46:17.750Z,100655.44
2023-04-18T13:48:44.544Z,100653.66
2023-04-18T13:51:11.533Z,100660.72
2023-04-18T13:53:38.134Z,100645.56
2023-04-18T13:56:05.435Z,100641.66
2023-04-18T13:58:32.019Z,100639.88
2023-04-18T14:00:58.608Z,100648.78
2023-04-18T14:03:27.068Z,100652.69
2023-04-18T14:05:53.914Z,100645.63
2023-04-18T14:08:20.536Z,100637.28
2023-04-18T14:10:47.122Z,100643.78
2023-04-18T14:13:13.765Z,100662.22
2023-04-18T14:15:40.364Z,100649.38
2023-04-18T14:18:07.013Z,100638.16
2023-04-18T14:20:36.195Z,100631.84
2023-04-18T14:23:02.776Z,100648.53
2023-04-18T14:25:30.268Z,100636.03
2023-04-18T14:28:05.359Z,100672.78
2023-04-18T14:30:32.031Z,100636.72
2023-04-18T14:32:58.650Z,100657.91
2023-04-18T14:35:25.264Z,100655.53
2023-04-18T14:37:53.217Z,100638.56
2023-04-18T14:40:20.582Z,100647.56
2023-04-18T14:42:47.390Z,100632.19
2023-04-18T14:45:16.541Z,100633.69
2023-04-18T14:47:43.362Z,100638.88
2023-04-18T14:50:11.002Z,100636.84
2023-04-18T14:52:38.174Z,100635.66
2023-04-18T14:55:07.705Z,100634.16
2023-04-18T14:57:35.786Z,100630.78
2023-04-18T15:00:02.663Z,100621.97
2023-04-18T15:02:29.442Z,100625.53
2023-04-18T15:04:56.323Z,100630.72
2023-04-18T15:07:22.960Z,100628.75
2023-04-18T15:09:50.449Z,100623.50
2023-04-18T15:12:18.448Z,100653.53
2023-04-18T15:14:45.145Z,100634.19
2023-04-18T15:17:11.740Z,100625.38
2023-04-18T15:19:38.534Z,100629.31
2023-04-18T15:22:05.152Z,100631.31
2023-04-18T15:24:31.724Z,100635.19
2023-04-18T15:26:58.362Z,100639.16
2023-04-18T15:29:26.340Z,100631.81
2023-04-18T15:31:53.161Z,100626.50
2023-04-18T15:34:19.747Z,100626.47
2023-04-18T15:36:47.433Z,100623.63
2023-04-18T15:39:14.221Z,100635.38
2023-04-18T15:41:40.868Z,100616.03
2023-04-18T15:44:08.103Z,100633.56
2023-04-18T15:46:36.587Z,100626.97
2023-04-18T15:49:03.258Z,100629.97
2023-04-18T15:51:29.935Z,100627.81
2023-04-18T15:53:56.555Z,100631.84
2023-04-18T15:56:25.226Z,100635.56
2023-04-18T15:58:51.780Z,100619.09
2023-04-18T16:01:18.472Z,100622.59
2023-04-18T16:03:46.489Z,100616.47
2023-04-18T16:06:14.477Z,100618.91
2023-04-18T16:08:41.147Z,100628.66
2023-04-18T16:11:07.794Z,100610.50
2023-04-18T16:13:35.334Z,100612.94
2023-04-18T16:16:04.300Z,100604.94
2023-04-18T16:18:31.283Z,100611.97
2023-04-18T16:20:59.285Z,100625.63
2023-04-18T16:23:26.493Z,100607.13
2023-04-18T16:25:53.475Z,100632.03
2023-04-18T16:28:20.083Z,100613.34
2023-04-18T16:30:46.962Z,100620.16
2023-04-18T16:33:13.627Z,100618.75
2023-04-18T16:35:40.418Z,100621.94
2023-04-18T16:38:08.319Z,100613.13
2023-04-18T16:40:35.018Z,100622.16
2023-04-18T16:43:01.649Z,100633.63
2023-04-18T16:45:28.238Z,100622.66
2023-04-18T16:47:54.872Z,100623.16
2023-04-18T16:50:24.104Z,100620.16
2023-04-18T16:52:50.696Z,100626.50
2023-04-18T16:55:18.766Z,100630.22
2023-04-18T16:57:45.443Z,100620.28
2023-04-18T17:00:12.735Z,100631.00
2023-04-18T17:02:39.596Z,100622.38
2023-04-18T17:05:06.851Z,100625.53
2023-04-18T17:07:33.731Z,100610.16
2023-04-18T17:10:00.256Z,100626.97
2023-04-18T17:12:28.528Z,100617.91
2023-04-18T17:14:55.092Z,100621.94
2023-04-18T17:17:21.719Z,100621.72
2023-04-18T17:19:48.292Z,100639.31
2023-04-18T17:22:14.868Z,100627.06
2023-04-18T17:24:41.408Z,100631.78
2023-04-18T17:27:07.944Z,100629.47
2023-04-18T17:29:35.845Z,100647.19
2023-04-18T17:32:02.529Z,100624.97
2023-04-18T17:34:29.235Z,100637.19
2023-04-18T17:36:56.081Z,100635.75
2023-04-18T17:39:22.694Z,100633.59
2023-04-18T17:41:49.678Z,100636.72
2023-04-18T17:44:16.281Z,100624.03
2023-04-18T17:46:44.246Z,100637.41
2023-04-18T17:49:10.880Z,100628.44
2023-04-18T17:51:37.884Z,100635.84
2023-04-18T17:54:04.470Z,100643.84
2023-04-18T17:56:31.017Z,100646.41
2023-04-18T17:58:57.621Z,100642.19
2023-04-18T18:01:24.236Z,100661.13
2023-04-18T18:03:52.521Z,100650.66
2023-04-18T18:06:19.149Z,100659.44
2023-04-18T18:08:45.801Z,100664.59
2023-04-18T18:11:12.416Z,100665.34
2023-04-18T18:13:39.256Z,100663.56
2023-04-18T18:16:06.337Z,100664.22
2023-04-18T18:18:32.973Z,100673.97
2023-04-18T18:21:00.806Z,100670.09
2023-04-18T18:23:27.391Z,100671.34
2023-04-18T18:25:54.010Z,100669.69
2023-04-18T18:28:20.571Z,100673.34
2023-04-18T18:30:47.277Z,100673.19
2023-04-18T18:33:13.979Z,100677.19
2023-04-18T18:35:40.603Z,100676.09
2023-04-18T18:38:08.686Z,100680.22
2023-04-18T18:40:35.296Z,100685.06
2023-04-18T18:43:01.863Z,100686.47
2023-04-18T18:45:28.694Z,100701.19
2023-04-18T18:47:55.373Z,100694.31
2023-04-18T18:50:22.175Z,100687.03
2023-04-18T18:52:48.812Z,100700.38
2023-04-18T18:55:16.851Z,100699.91
2023-04-18T18:57:43.428Z,100703.97
2023-04-18T19:00:10.913Z,100697.19
2023-04-18T19:02:38.116Z,100699.56
2023-04-18T19:05:06.140Z,100709.31
2023-04-18T19:07:32.821Z,100703.22
2023-04-18T19:09:59.633Z,100712.09
2023-04-18T19:12:27.942Z,100712.03
2023-04-18T19:14:54.768Z,100704.63
2023-04-18T19:17:21.423Z,100714.91
2023-04-18T19:19:48.534Z,100709.28
2023-04-18T19:22:15.343Z,100701.69
2023-04-18T19:24:42.033Z,100716.81
2023-04-18T19:27:08.935Z,100726.88
2023-04-18T19:29:37.252Z,100714.84
2023-04-18T19:32:04.428Z,100721.25
2023-04-18T19:34:31.214Z,100727.03
2023-04-18T19:36:57.979Z,100742.88
2023-04-18T19:39:24.545Z,100726.84
2023-04-18T19:41:52.769Z,100720.69
2023-04-18T19:44:19.714Z,100738.69
2023-04-18T19:46:47.686Z,100734.22
2023-04-18T19:49:14.606Z,100730.84
2023-04-18T19:51:42.304Z,100725.41
2023-04-18T19:54:08.933Z,100734.06
2023-04-18T19:56:35.610Z,100728.22
2023-04-18T19:59:02.265Z,100725.47
2023-04-18T20:01:29.720Z,100741.69
2023-04-18T20:03:58.298Z,100745.94
2023-04-18T20:06:25.311Z,100753.28
2023-04-18T20:08:52.491Z,100733.09
2023-04-18T20:11:19.383Z,100732.53
2023-04-18T20:13:46.510Z,100741.19
2023-04-18T20:16:13.206Z,100739.41
2023-04-18T20:18:41.280Z,100752.41
2023-04-18T20:21:10.072Z,100737.72
2023-04-18T20:23:37.504Z,100740.13
2023-04-18T20:26:04.420Z,100740.25
2023-04-18T20:28:31.288Z,100743.84
2023-04-18T20:30:58.099Z,100750.72
2023-04-18T20:33:24.793Z,100741.75
2023-04-18T20:35:51.348Z,100750.09
2023-04-18T20:38:19.288Z,100754.81
2023-04-18T20:40:45.922Z,100745.28
2023-04-18T20:43:12.889Z,100747.44
2023-04-18T20:45:39.590Z,100772.16
2023-04-18T20:48:06.843Z,100750.34
2023-04-18T20:50:33.422Z,100745.31
2023-04-18T20:53:00.131Z,100759.22
2023-04-18T20:55:28.142Z,100753.28
2023-04-18T20:57:54.838Z,100746.72
2023-04-18T21:00:21.922Z,100764.72
2023-04-18T21:02:48.736Z,100753.47
2023-04-18T21:05:15.487Z,100764.44
2023-04-18T21:07:44.032Z,100760.81
2023-04-18T21:10:12.215Z,100761.44
2023-04-18T21:12:41.322Z,100766.38
2023-04-18T21:15:08.726Z,100764.25
2023-04-18T21:17:35.337Z,100761.50
2023-04-18T21:20:02.133Z,100764.91
2023-04-18T21:22:28.809Z,100775.97
2023-04-18T21:24:55.568Z,100773.59
2023-04-18T21:27:22.176Z,100772.75
2023-04-18T21:29:50.255Z,100775.47
2023-04-18T21:32:16.858Z,100781.22
2023-04-18T21:34:43.541Z,100774.13
2023-04-18T21:37:10.217Z,100787.38
2023-04-18T21:39:36.802Z,100773.69
2023-04-18T21:42:03.696Z,100780.56
2023-04-18T21:44:30.267Z,100772.47
2023-04-18T21:46:58.201Z,100773.50
2023-04-18T21:49:24.926Z,100780.78
2023-04-18T21:51:51.559Z,100780.84
2023-04-18T21:54:18.238Z,100774.56
2023-04-18T21:56:44.817Z,100773.06
2023-04-18T21:59:11.416Z,100769.41
2023-04-18T22:01:38.105Z,100767.13
2023-04-18T22:04:06.338Z,100783.44
2023-04-18T22:06:33.460Z,100767.63
2023-04-18T22:09:00.331Z,100766.19
2023-04-18T22:11:26.895Z,100771.53
2023-04-18T22:13:53.574Z,100768.91
2023-04-18T22:16:20.835Z,100776.56
2023-04-18T22:18:48.012Z,100776.78
2023-04-18T22:21:16.215Z,100778.41
2023-04-18T22:23:42.802Z,100768.13
2023-04-18T22:26:09.553Z,100770.28
2023-04-18T22:28:36.141Z,100774.72
2023-04-18T22:31:02.834Z,100774.69
2023-04-18T22:33:29.667Z,100767.63
2023-04-18T22:35:56.401Z,100775.44
2023-04-18T22:38:25.021Z,100767.13
2023-04-18T22:40:51.713Z,100770.47
2023-04-18T22:43:18.372Z,100783.38
2023-04-18T22:45:45.287Z,100768.88
2023-04-18T22:48:12.164Z,100778.22
2023-04-18T22:50:38.779Z,100788.56
2023-04-18T22:53:05.430Z,100772.44
2023-04-18T22:55:33.629Z,100769.59
2023-04-18T22:58:00.209Z,100772.03
2023-04-18T23:00:26.923Z,100778.66
2023-04-18T23:02:53.635Z,100767.31
2023-04-18T23:05:20.373Z,100764.34
2023-04-18T23:07:46.958Z,100768.44
2023-04-18T23:10:13.588Z,100763.47
2023-04-18T23:12:41.592Z,100775.31
2023-04-18T23:15:08.890Z,100771.72
2023-04-18T23:17:35.480Z,100762.00
2023-04-18T23:20:02.089Z,100778.00
2023-04-18T23:22:29.141Z,100779.69
2023-04-18T23:24:55.766Z,100772.94
2023-04-18T23:27:22.332Z,100766.31
2023-04-18T23:29:50.407Z,100768.25
2023-04-18T23:32:17.011Z,100771.75
2023-04-18T23:34:45.081Z,100764.66
2023-04-18T23:37:11.920Z,100765.78
2023-04-18T23:39:38.487Z,100767.00
2023-04-18T23:42:05.206Z,100753.22
2023-04-18T23:44:31.846Z,100758.75
2023-04-18T23:46:59.869Z,100761.25
2023-04-18T23:49:26.680Z,100757.53
2023-04-18T23:51:53.385Z,100759.25
2023-04-18T23:54:19.968Z,100758.03
2023-04-18T23:56:46.635Z,100759.94
2023-04-18T23:59:13.202Z,100768.69
